sensor_id;sensor_type;location;lat;lon;timestamp;P1;durP1;ratioP1;P2;durP2;ratioP2
47239;SDS011;32978;53.586;10.052;2023-06-19T00:03:48;8.82;;;6.78;;
47239;SDS011;32978;53.586;10.052;2023-06-19T00:08:44;8.82;;;7.20;;
47239;SDS011;32978;53.586;10.052;2023-06-19T00:13:40;7.38;;;6.63;;
47239;SDS011;32978;53.586;10.052;2023-06-19T00:18:37;9.65;;;7.35;;
47239;SDS011;32978;53.586;10.052;2023-06-19T00:23:36;7.95;;;7.10;;
47239;SDS011;32978;53.586;10.052;2023-06-19T00:28:32;8.48;;;7.57;;
47239;SDS011;32978;53.586;10.052;2023-06-19T00:33:30;12.40;;;7.80;;
47239;SDS011;32978;53.586;10.052;2023-06-19T00:38:26;8.02;;;7.22;;
47239;SDS011;32978;53.586;10.052;2023-06-19T00:43:22;7.95;;;7.22;;
47239;SDS011;32978;53.586;10.052;2023-06-19T00:48:19;8.75;;;7.95;;
47239;SDS011;32978;53.586;10.052;2023-06-19T00:53:15;8.63;;;7.57;;
47239;SDS011;32978;53.586;10.052;2023-06-19T00:58:11;8.50;;;7.43;;
47239;SDS011;32978;53.586;10.052;2023-06-19T01:08:43;10.73;;;6.85;;
47239;SDS011;32978;53.586;10.052;2023-06-19T01:13:46;8.65;;;7.85;;
47239;SDS011;32978;53.586;10.052;2023-06-19T01:18:43;8.75;;;7.78;;
47239;SDS011;32978;53.586;10.052;2023-06-19T01:23:40;8.00;;;7.20;;
47239;SDS011;32978;53.586;10.052;2023-06-19T01:28:41;8.07;;;7.28;;
47239;SDS011;32978;53.586;10.052;2023-06-19T01:33:37;10.55;;;7.50;;
47239;SDS011;32978;53.586;10.052;2023-06-19T01:38:34;8.55;;;7.70;;
47239;SDS011;32978;53.586;10.052;2023-06-19T01:43:31;9.30;;;8.15;;
47239;SDS011;32978;53.586;10.052;2023-06-19T01:48:27;12.65;;;8.32;;
47239;SDS011;32978;53.586;10.052;2023-06-19T01:53:24;8.57;;;7.63;;
47239;SDS011;32978;53.586;10.052;2023-06-19T01:58:20;11.60;;;7.82;;
47239;SDS011;32978;53.586;10.052;2023-06-19T02:03:16;9.55;;;8.10;;
47239;SDS011;32978;53.586;10.052;2023-06-19T02:08:13;8.27;;;7.50;;
47239;SDS011;32978;53.586;10.052;2023-06-19T02:13:09;10.98;;;8.02;;
47239;SDS011;32978;53.586;10.052;2023-06-19T02:18:05;9.60;;;8.02;;
47239;SDS011;32978;53.586;10.052;2023-06-19T02:23:02;8.70;;;7.90;;
47239;SDS011;32978;53.586;10.052;2023-06-19T02:27:58;9.35;;;8.55;;
47239;SDS011;32978;53.586;10.052;2023-06-19T02:32:54;9.13;;;7.88;;
47239;SDS011;32978;53.586;10.052;2023-06-19T02:37:51;12.50;;;8.88;;
47239;SDS011;32978;53.586;10.052;2023-06-19T02:42:47;9.27;;;8.38;;
47239;SDS011;32978;53.586;10.052;2023-06-19T02:47:44;8.77;;;8.00;;
47239;SDS011;32978;53.586;10.052;2023-06-19T02:52:43;9.40;;;8.50;;
47239;SDS011;32978;53.586;10.052;2023-06-19T02:57:40;9.10;;;8.15;;
47239;SDS011;32978;53.586;10.052;2023-06-19T03:02:36;9.30;;;8.40;;
47239;SDS011;32978;53.586;10.052;2023-06-19T03:07:36;9.52;;;8.63;;
47239;SDS011;32978;53.586;10.052;2023-06-19T03:12:32;11.80;;;8.88;;
47239;SDS011;32978;53.586;10.052;2023-06-19T03:17:29;8.85;;;8.00;;
47239;SDS011;32978;53.586;10.052;2023-06-19T03:22:25;9.90;;;8.90;;
47239;SDS011;32978;53.586;10.052;2023-06-19T03:27:22;9.50;;;8.50;;
47239;SDS011;32978;53.586;10.052;2023-06-19T03:32:18;10.35;;;9.35;;
47239;SDS011;32978;53.586;10.052;2023-06-19T03:37:16;9.93;;;9.02;;
47239;SDS011;32978;53.586;10.052;2023-06-19T03:42:12;9.57;;;8.77;;
47239;SDS011;32978;53.586;10.052;2023-06-19T03:47:09;9.38;;;8.48;;
47239;SDS011;32978;53.586;10.052;2023-06-19T03:52:05;10.13;;;9.13;;
47239;SDS011;32978;53.586;10.052;2023-06-19T03:57:02;9.70;;;8.80;;
47239;SDS011;32978;53.586;10.052;2023-06-19T04:01:59;10.35;;;9.00;;
47239;SDS011;32978;53.586;10.052;2023-06-19T04:06:55;10.20;;;9.30;;
47239;SDS011;32978;53.586;10.052;2023-06-19T04:11:51;10.60;;;9.60;;
47239;SDS011;32978;53.586;10.052;2023-06-19T04:16:48;10.07;;;8.98;;
47239;SDS011;32978;53.586;10.052;2023-06-19T04:21:45;10.48;;;9.48;;
47239;SDS011;32978;53.586;10.052;2023-06-19T04:26:41;9.52;;;8.63;;
47239;SDS011;32978;53.586;10.052;2023-06-19T04:31:38;10.70;;;9.60;;
47239;SDS011;32978;53.586;10.052;2023-06-19T04:36:38;11.20;;;10.07;;
47239;SDS011;32978;53.586;10.052;2023-06-19T04:41:34;13.77;;;10.55;;
47239;SDS011;32978;53.586;10.052;2023-06-19T04:46:35;11.88;;;10.77;;
47239;SDS011;32978;53.586;10.052;2023-06-19T04:51:34;12.95;;;11.73;;
47239;SDS011;32978;53.586;10.052;2023-06-19T04:56:30;11.30;;;10.20;;
47239;SDS011;32978;53.586;10.052;2023-06-19T05:01:27;11.98;;;10.77;;
47239;SDS011;32978;53.586;10.052;2023-06-19T05:06:29;11.98;;;10.65;;
47239;SDS011;32978;53.586;10.052;2023-06-19T05:11:26;11.73;;;10.65;;
47239;SDS011;32978;53.586;10.052;2023-06-19T05:16:22;12.27;;;11.07;;
47239;SDS011;32978;53.586;10.052;2023-06-19T05:21:19;14.75;;;12.18;;
47239;SDS011;32978;53.586;10.052;2023-06-19T05:26:19;12.18;;;10.98;;
47239;SDS011;32978;53.586;10.052;2023-06-19T05:31:16;12.15;;;10.60;;
47239;SDS011;32978;53.586;10.052;2023-06-19T05:36:12;11.73;;;10.57;;
47239;SDS011;32978;53.586;10.052;2023-06-19T05:41:08;12.15;;;10.95;;
47239;SDS011;32978;53.586;10.052;2023-06-19T05:46:05;12.40;;;11.30;;
47239;SDS011;32978;53.586;10.052;2023-06-19T05:51:01;12.48;;;11.20;;
47239;SDS011;32978;53.586;10.052;2023-06-19T05:55:57;12.80;;;11.45;;
47239;SDS011;32978;53.586;10.052;2023-06-19T06:00:54;12.82;;;11.70;;
47239;SDS011;32978;53.586;10.052;2023-06-19T06:05:53;12.95;;;10.98;;
47239;SDS011;32978;53.586;10.052;2023-06-19T06:10:50;12.90;;;11.52;;
47239;SDS011;32978;53.586;10.052;2023-06-19T06:15:46;13.45;;;12.13;;
47239;SDS011;32978;53.586;10.052;2023-06-19T06:20:42;12.40;;;11.32;;
47239;SDS011;32978;53.586;10.052;2023-06-19T06:25:39;13.07;;;11.73;;
47239;SDS011;32978;53.586;10.052;2023-06-19T06:30:35;12.32;;;11.20;;
47239;SDS011;32978;53.586;10.052;2023-06-19T06:35:31;13.43;;;12.13;;
47239;SDS011;32978;53.586;10.052;2023-06-19T06:40:27;13.30;;;11.98;;
47239;SDS011;32978;53.586;10.052;2023-06-19T06:45:24;13.23;;;12.00;;
47239;SDS011;32978;53.586;10.052;2023-06-19T06:50:23;13.90;;;12.68;;
47239;SDS011;32978;53.586;10.052;2023-06-19T06:55:19;14.43;;;13.15;;
47239;SDS011;32978;53.586;10.052;2023-06-19T07:00:16;16.02;;;14.63;;
47239;SDS011;32978;53.586;10.052;2023-06-19T07:05:14;15.65;;;13.93;;
47239;SDS011;32978;53.586;10.052;2023-06-19T07:10:10;15.57;;;14.18;;
47239;SDS011;32978;53.586;10.052;2023-06-19T07:15:07;15.73;;;14.10;;
47239;SDS011;32978;53.586;10.052;2023-06-19T07:20:04;14.18;;;12.98;;
47239;SDS011;32978;53.586;10.052;2023-06-19T07:25:00;13.93;;;12.70;;
47239;SDS011;32978;53.586;10.052;2023-06-19T07:29:56;14.30;;;12.98;;
47239;SDS011;32978;53.586;10.052;2023-06-19T07:34:53;14.77;;;13.27;;
47239;SDS011;32978;53.586;10.052;2023-06-19T07:39:52;14.35;;;12.95;;
47239;SDS011;32978;53.586;10.052;2023-06-19T07:44:49;14.32;;;12.90;;
47239;SDS011;32978;53.586;10.052;2023-06-19T07:49:45;14.38;;;12.88;;
47239;SDS011;32978;53.586;10.052;2023-06-19T07:54:50;14.10;;;12.80;;
47239;SDS011;32978;53.586;10.052;2023-06-19T07:59:48;14.25;;;12.13;;
47239;SDS011;32978;53.586;10.052;2023-06-19T08:04:45;15.13;;;13.02;;
47239;SDS011;32978;53.586;10.052;2023-06-19T08:09:41;13.35;;;12.05;;
47239;SDS011;32978;53.586;10.052;2023-06-19T08:14:38;13.30;;;12.02;;
47239;SDS011;32978;53.586;10.052;2023-06-19T08:19:34;13.27;;;11.98;;
47239;SDS011;32978;53.586;10.052;2023-06-19T08:24:31;15.05;;;13.55;;
47239;SDS011;32978;53.586;10.052;2023-06-19T08:29:27;13.68;;;12.50;;
47239;SDS011;32978;53.586;10.052;2023-06-19T08:34:23;13.23;;;12.13;;
47239;SDS011;32978;53.586;10.052;2023-06-19T08:39:20;14.95;;;13.10;;
47239;SDS011;32978;53.586;10.052;2023-06-19T08:44:18;12.77;;;11.68;;
47239;SDS011;32978;53.586;10.052;2023-06-19T08:49:14;13.43;;;12.02;;
47239;SDS011;32978;53.586;10.052;2023-06-19T08:54:11;12.95;;;11.65;;
47239;SDS011;32978;53.586;10.052;2023-06-19T08:59:10;13.57;;;12.27;;
47239;SDS011;32978;53.586;10.052;2023-06-19T09:04:10;13.13;;;11.93;;
47239;SDS011;32978;53.586;10.052;2023-06-19T09:09:07;12.55;;;11.35;;
47239;SDS011;32978;53.586;10.052;2023-06-19T09:14:11;13.63;;;12.35;;
47239;SDS011;32978;53.586;10.052;2023-06-19T09:19:07;13.45;;;12.25;;
47239;SDS011;32978;53.586;10.052;2023-06-19T09:24:04;13.65;;;12.35;;
47239;SDS011;32978;53.586;10.052;2023-06-19T09:29:13;14.00;;;11.70;;
47239;SDS011;32978;53.586;10.052;2023-06-19T09:34:16;14.02;;;12.73;;
47239;SDS011;32978;53.586;10.052;2023-06-19T09:39:12;13.65;;;12.25;;
47239;SDS011;32978;53.586;10.052;2023-06-19T09:44:09;13.32;;;12.23;;
47239;SDS011;32978;53.586;10.052;2023-06-19T09:49:08;13.93;;;12.68;;
47239;SDS011;32978;53.586;10.052;2023-06-19T09:54:06;13.07;;;11.98;;
47239;SDS011;32978;53.586;10.052;2023-06-19T09:59:03;13.63;;;12.15;;
47239;SDS011;32978;53.586;10.052;2023-06-19T10:04:01;13.63;;;12.32;;
47239;SDS011;32978;53.586;10.052;2023-06-19T10:09:05;13.05;;;11.85;;
47239;SDS011;32978;53.586;10.052;2023-06-19T10:14:05;13.48;;;11.98;;
47239;SDS011;32978;53.586;10.052;2023-06-19T10:19:11;14.40;;;13.00;;
47239;SDS011;32978;53.586;10.052;2023-06-19T10:24:13;13.93;;;12.70;;
47239;SDS011;32978;53.586;10.052;2023-06-19T10:29:16;13.60;;;11.85;;
47239;SDS011;32978;53.586;10.052;2023-06-19T10:34:12;13.65;;;12.35;;
47239;SDS011;32978;53.586;10.052;2023-06-19T10:39:09;13.50;;;12.30;;
47239;SDS011;32978;53.586;10.052;2023-06-19T10:44:06;13.27;;;12.02;;
47239;SDS011;32978;53.586;10.052;2023-06-19T10:49:07;14.13;;;12.67;;
47239;SDS011;32978;53.586;10.052;2023-06-19T10:54:06;13.80;;;12.65;;
47239;SDS011;32978;53.586;10.052;2023-06-19T10:59:06;13.60;;;12.40;;
47239;SDS011;32978;53.586;10.052;2023-06-19T11:04:05;14.80;;;13.50;;
47239;SDS011;32978;53.586;10.052;2023-06-19T11:09:02;16.05;;;12.45;;
47239;SDS011;32978;53.586;10.052;2023-06-19T11:14:03;14.07;;;12.55;;
47239;SDS011;32978;53.586;10.052;2023-06-19T11:19:00;14.05;;;12.95;;
47239;SDS011;32978;53.586;10.052;2023-06-19T11:23:57;13.23;;;12.13;;
47239;SDS011;32978;53.586;10.052;2023-06-19T11:28:54;16.13;;;13.20;;
47239;SDS011;32978;53.586;10.052;2023-06-19T11:33:59;14.98;;;13.52;;
47239;SDS011;32978;53.586;10.052;2023-06-19T11:38:56;13.45;;;12.18;;
47239;SDS011;32978;53.586;10.052;2023-06-19T11:43:57;13.10;;;11.98;;
47239;SDS011;32978;53.586;10.052;2023-06-19T11:48:54;13.35;;;12.25;;
47239;SDS011;32978;53.586;10.052;2023-06-19T11:54:05;13.90;;;12.80;;
47239;SDS011;32978;53.586;10.052;2023-06-19T11:59:01;13.20;;;12.13;;
47239;SDS011;32978;53.586;10.052;2023-06-19T12:03:59;12.68;;;11.32;;
47239;SDS011;32978;53.586;10.052;2023-06-19T12:08:56;11.77;;;10.77;;
47239;SDS011;32978;53.586;10.052;2023-06-19T12:13:52;10.75;;;9.93;;
47239;SDS011;32978;53.586;10.052;2023-06-19T12:18:53;12.02;;;10.95;;
47239;SDS011;32978;53.586;10.052;2023-06-19T12:23:50;11.32;;;10.32;;
47239;SDS011;32978;53.586;10.052;2023-06-19T12:28:46;12.00;;;11.00;;
47239;SDS011;32978;53.586;10.052;2023-06-19T12:33:42;12.35;;;10.18;;
47239;SDS011;32978;53.586;10.052;2023-06-19T12:38:40;11.20;;;10.25;;
47239;SDS011;32978;53.586;10.052;2023-06-19T12:43:36;10.80;;;9.82;;
47239;SDS011;32978;53.586;10.052;2023-06-19T12:48:32;10.65;;;9.63;;
47239;SDS011;32978;53.586;10.052;2023-06-19T12:53:29;11.70;;;10.68;;
47239;SDS011;32978;53.586;10.052;2023-06-19T12:58:26;10.40;;;9.40;;
47239;SDS011;32978;53.586;10.052;2023-06-19T13:03:22;11.10;;;10.07;;
47239;SDS011;32978;53.586;10.052;2023-06-19T13:08:18;11.00;;;10.07;;
47239;SDS011;32978;53.586;10.052;2023-06-19T13:13:15;10.32;;;9.40;;
47239;SDS011;32978;53.586;10.052;2023-06-19T13:18:11;10.68;;;9.70;;
47239;SDS011;32978;53.586;10.052;2023-06-19T13:23:08;11.18;;;10.23;;
47239;SDS011;32978;53.586;10.052;2023-06-19T13:28:04;10.30;;;9.40;;
47239;SDS011;32978;53.586;10.052;2023-06-19T13:33:00;9.80;;;8.82;;
47239;SDS011;32978;53.586;10.052;2023-06-19T13:38:00;10.27;;;9.23;;
47239;SDS011;32978;53.586;10.052;2023-06-19T13:42:56;9.90;;;9.00;;
47239;SDS011;32978;53.586;10.052;2023-06-19T13:47:53;10.35;;;9.32;;
47239;SDS011;32978;53.586;10.052;2023-06-19T13:52:49;10.63;;;9.52;;
47239;SDS011;32978;53.586;10.052;2023-06-19T13:57:46;9.70;;;8.90;;
47239;SDS011;32978;53.586;10.052;2023-06-19T14:02:42;10.30;;;9.30;;
47239;SDS011;32978;53.586;10.052;2023-06-19T14:07:39;9.77;;;8.88;;
47239;SDS011;32978;53.586;10.052;2023-06-19T14:12:36;10.68;;;8.98;;
47239;SDS011;32978;53.586;10.052;2023-06-19T14:17:32;10.07;;;9.18;;
47239;SDS011;32978;53.586;10.052;2023-06-19T14:22:29;9.55;;;8.75;;
47239;SDS011;32978;53.586;10.052;2023-06-19T14:27:26;9.88;;;9.07;;
47239;SDS011;32978;53.586;10.052;2023-06-19T14:32:22;9.85;;;8.85;;
47239;SDS011;32978;53.586;10.052;2023-06-19T14:37:19;9.93;;;8.63;;
47239;SDS011;32978;53.586;10.052;2023-06-19T14:42:17;10.35;;;9.07;;
47239;SDS011;32978;53.586;10.052;2023-06-19T14:47:13;9.80;;;8.90;;
47239;SDS011;32978;53.586;10.052;2023-06-19T14:52:09;9.55;;;8.68;;
47239;SDS011;32978;53.586;10.052;2023-06-19T14:57:06;10.32;;;9.43;;
47239;SDS011;32978;53.586;10.052;2023-06-19T15:02:02;9.93;;;9.02;;
47239;SDS011;32978;53.586;10.052;2023-06-19T15:06:59;9.95;;;9.15;;
47239;SDS011;32978;53.586;10.052;2023-06-19T15:11:56;10.95;;;9.25;;
47239;SDS011;32978;53.586;10.052;2023-06-19T15:16:52;10.05;;;9.10;;
47239;SDS011;32978;53.586;10.052;2023-06-19T15:21:48;10.10;;;9.20;;
47239;SDS011;32978;53.586;10.052;2023-06-19T15:26:45;10.60;;;9.60;;
47239;SDS011;32978;53.586;10.052;2023-06-19T15:31:41;9.80;;;8.90;;
47239;SDS011;32978;53.586;10.052;2023-06-19T15:36:37;10.98;;;10.07;;
47239;SDS011;32978;53.586;10.052;2023-06-19T15:41:34;10.55;;;9.60;;
47239;SDS011;32978;53.586;10.052;2023-06-19T15:46:30;10.05;;;9.15;;
47239;SDS011;32978;53.586;10.052;2023-06-19T15:51:26;10.82;;;9.82;;
47239;SDS011;32978;53.586;10.052;2023-06-19T15:56:23;12.65;;;10.02;;
47239;SDS011;32978;53.586;10.052;2023-06-19T16:01:19;9.57;;;8.77;;
47239;SDS011;32978;53.586;10.052;2023-06-19T16:06:15;10.20;;;9.35;;
47239;SDS011;32978;53.586;10.052;2023-06-19T16:11:12;11.20;;;10.30;;
47239;SDS011;32978;53.586;10.052;2023-06-19T16:16:08;10.23;;;9.32;;
47239;SDS011;32978;53.586;10.052;2023-06-19T16:21:05;10.93;;;9.98;;
47239;SDS011;32978;53.586;10.052;2023-06-19T16:26:01;10.25;;;9.25;;
47239;SDS011;32978;53.586;10.052;2023-06-19T16:30:58;10.05;;;9.15;;
47239;SDS011;32978;53.586;10.052;2023-06-19T16:35:55;9.68;;;8.68;;
47239;SDS011;32978;53.586;10.052;2023-06-19T16:40:51;10.77;;;9.77;;
47239;SDS011;32978;53.586;10.052;2023-06-19T16:45:48;9.32;;;8.43;;
47239;SDS011;32978;53.586;10.052;2023-06-19T16:50:44;9.15;;;8.35;;
47239;SDS011;32978;53.586;10.052;2023-06-19T16:55:40;9.23;;;8.45;;
47239;SDS011;32978;53.586;10.052;2023-06-19T17:00:37;9.40;;;8.60;;
47239;SDS011;32978;53.586;10.052;2023-06-19T17:05:33;9.23;;;8.27;;
47239;SDS011;32978;53.586;10.052;2023-06-19T17:10:29;8.48;;;7.78;;
47239;SDS011;32978;53.586;10.052;2023-06-19T17:15:25;8.77;;;7.97;;
47239;SDS011;32978;53.586;10.052;2023-06-19T17:20:26;9.63;;;8.30;;
47239;SDS011;32978;53.586;10.052;2023-06-19T17:25:23;9.70;;;8.88;;
47239;SDS011;32978;53.586;10.052;2023-06-19T17:30:20;9.90;;;9.00;;
47239;SDS011;32978;53.586;10.052;2023-06-19T17:35:16;8.93;;;8.13;;
47239;SDS011;32978;53.586;10.052;2023-06-19T17:40:13;9.77;;;8.77;;
47239;SDS011;32978;53.586;10.052;2023-06-19T17:45:09;8.50;;;7.85;;
47239;SDS011;32978;53.586;10.052;2023-06-19T17:50:10;8.48;;;7.78;;
47239;SDS011;32978;53.586;10.052;2023-06-19T17:55:08;9.38;;;8.43;;
47239;SDS011;32978;53.586;10.052;2023-06-19T18:00:05;9.32;;;8.52;;
47239;SDS011;32978;53.586;10.052;2023-06-19T18:05:02;10.15;;;9.25;;
47239;SDS011;32978;53.586;10.052;2023-06-19T18:09:58;11.80;;;10.20;;
47239;SDS011;32978;53.586;10.052;2023-06-19T18:14:55;18.60;;;15.10;;
47239;SDS011;32978;53.586;10.052;2023-06-19T18:19:51;17.60;;;15.75;;
47239;SDS011;32978;53.586;10.052;2023-06-19T18:24:48;14.05;;;11.43;;
47239;SDS011;32978;53.586;10.052;2023-06-19T18:29:44;10.90;;;9.80;;
47239;SDS011;32978;53.586;10.052;2023-06-19T18:34:41;13.43;;;9.38;;
47239;SDS011;32978;53.586;10.052;2023-06-19T18:39:37;10.18;;;9.25;;
47239;SDS011;32978;53.586;10.052;2023-06-19T18:44:33;10.07;;;9.18;;
47239;SDS011;32978;53.586;10.052;2023-06-19T18:49:30;10.68;;;9.68;;
47239;SDS011;32978;53.586;10.052;2023-06-19T18:54:27;11.07;;;9.98;;
47239;SDS011;32978;53.586;10.052;2023-06-19T18:59:24;10.05;;;9.05;;
47239;SDS011;32978;53.586;10.052;2023-06-19T19:04:20;12.82;;;9.65;;
47239;SDS011;32978;53.586;10.052;2023-06-19T19:09:16;10.95;;;9.38;;
47239;SDS011;32978;53.586;10.052;2023-06-19T19:14:13;12.13;;;9.57;;
47239;SDS011;32978;53.586;10.052;2023-06-19T19:19:09;10.05;;;9.05;;
47239;SDS011;32978;53.586;10.052;2023-06-19T19:24:05;12.18;;;9.93;;
47239;SDS011;32978;53.586;10.052;2023-06-19T19:29:02;10.07;;;9.07;;
47239;SDS011;32978;53.586;10.052;2023-06-19T19:33:58;10.82;;;9.15;;
47239;SDS011;32978;53.586;10.052;2023-06-19T19:38:55;8.95;;;8.13;;
47239;SDS011;32978;53.586;10.052;2023-06-19T19:43:51;9.93;;;8.93;;
47239;SDS011;32978;53.586;10.052;2023-06-19T19:48:47;9.80;;;8.80;;
47239;SDS011;32978;53.586;10.052;2023-06-19T19:53:44;10.38;;;9.45;;
47239;SDS011;32978;53.586;10.052;2023-06-19T19:58:40;9.88;;;8.85;;
47239;SDS011;32978;53.586;10.052;2023-06-19T20:03:36;10.00;;;9.00;;
47239;SDS011;32978;53.586;10.052;2023-06-19T20:08:33;10.55;;;9.40;;
47239;SDS011;32978;53.586;10.052;2023-06-19T20:13:29;10.82;;;9.10;;
47239;SDS011;32978;53.586;10.052;2023-06-19T20:18:28;12.57;;;9.80;;
47239;SDS011;32978;53.586;10.052;2023-06-19T20:23:24;11.82;;;9.45;;
47239;SDS011;32978;53.586;10.052;2023-06-19T20:28:20;10.55;;;8.80;;
47239;SDS011;32978;53.586;10.052;2023-06-19T20:33:17;10.60;;;9.27;;
47239;SDS011;32978;53.586;10.052;2023-06-19T20:38:13;14.55;;;10.52;;
47239;SDS011;32978;53.586;10.052;2023-06-19T20:43:10;14.50;;;11.23;;
47239;SDS011;32978;53.586;10.052;2023-06-19T20:48:06;12.27;;;10.50;;
47239;SDS011;32978;53.586;10.052;2023-06-19T20:53:03;12.32;;;10.85;;
47239;SDS011;32978;53.586;10.052;2023-06-19T20:57:59;12.73;;;11.30;;
47239;SDS011;32978;53.586;10.052;2023-06-19T21:03:00;13.73;;;10.07;;
47239;SDS011;32978;53.586;10.052;2023-06-19T21:07:59;11.38;;;10.05;;
47239;SDS011;32978;53.586;10.052;2023-06-19T21:12:56;13.45;;;10.77;;
47239;SDS011;32978;53.586;10.052;2023-06-19T21:18:05;11.63;;;10.52;;
47239;SDS011;32978;53.586;10.052;2023-06-19T21:23:03;11.25;;;10.05;;
47239;SDS011;32978;53.586;10.052;2023-06-19T21:27:59;12.57;;;10.40;;
47239;SDS011;32978;53.586;10.052;2023-06-19T21:32:56;13.65;;;9.80;;
47239;SDS011;32978;53.586;10.052;2023-06-19T21:37:52;12.95;;;10.48;;
47239;SDS011;32978;53.586;10.052;2023-06-19T21:42:48;11.80;;;10.60;;
47239;SDS011;32978;53.586;10.052;2023-06-19T21:47:45;13.02;;;11.05;;
47239;SDS011;32978;53.586;10.052;2023-06-19T21:52:45;13.10;;;11.73;;
47239;SDS011;32978;53.586;10.052;2023-06-19T21:57:42;13.63;;;10.77;;
47239;SDS011;32978;53.586;10.052;2023-06-19T22:02:42;10.90;;;9.80;;
47239;SDS011;32978;53.586;10.052;2023-06-19T22:07:38;11.90;;;10.27;;
47239;SDS011;32978;53.586;10.052;2023-06-19T22:12:35;11.32;;;9.98;;
47239;SDS011;32978;53.586;10.052;2023-06-19T22:17:31;11.90;;;10.10;;
47239;SDS011;32978;53.586;10.052;2023-06-19T22:22:28;11.63;;;9.45;;
47239;SDS011;32978;53.586;10.052;2023-06-19T22:27:24;11.30;;;9.63;;
47239;SDS011;32978;53.586;10.052;2023-06-19T22:32:21;11.20;;;9.55;;
47239;SDS011;32978;53.586;10.052;2023-06-19T22:37:17;12.07;;;10.38;;
47239;SDS011;32978;53.586;10.052;2023-06-19T22:42:14;12.10;;;10.07;;
47239;SDS011;32978;53.586;10.052;2023-06-19T22:47:10;10.70;;;9.63;;
47239;SDS011;32978;53.586;10.052;2023-06-19T22:52:09;11.05;;;9.02;;
47239;SDS011;32978;53.586;10.052;2023-06-19T22:57:05;12.73;;;10.45;;
47239;SDS011;32978;53.586;10.052;2023-06-19T23:02:01;11.98;;;9.90;;
47239;SDS011;32978;53.586;10.052;2023-06-19T23:06:57;12.23;;;10.50;;
47239;SDS011;32978;53.586;10.052;2023-06-19T23:11:57;11.02;;;9.82;;
47239;SDS011;32978;53.586;10.052;2023-06-19T23:16:54;13.15;;;10.40;;
47239;SDS011;32978;53.586;10.052;2023-06-19T23:21:51;11.25;;;10.15;;
47239;SDS011;32978;53.586;10.052;2023-06-19T23:26:47;12.20;;;10.93;;
47239;SDS011;32978;53.586;10.052;2023-06-19T23:31:45;11.02;;;10.00;;
47239;SDS011;32978;53.586;10.052;2023-06-19T23:36:41;11.75;;;10.45;;
47239;SDS011;32978;53.586;10.052;2023-06-19T23:41:37;12.80;;;11.32;;
47239;SDS011;32978;53.586;10.052;2023-06-19T23:46:33;13.02;;;11.55;;
47239;SDS011;32978;53.586;10.052;2023-06-19T23:51:30;13.25;;;11.85;;
47239;SDS011;32978;53.586;10.052;2023-06-19T23:56:26;14.27;;;12.77;;
